Clovis ASC

Jan. 22, 2020, 4:50 p.m.

  • imperial
Air Temperature RH Dewpoint Wind Chill Heat Index Wind Speed Wind Direction Precipitation Solar Radiation Soil Temperature
Date Time Max Mean Mean Total Total
US/Mountain F % F F F MPH MPH MPH deg. deg. in. MJ/m^2 F
2020-01-21 16:50 34.88 97.9 34.35 28.05 34.88 8.48 12.59 10.27 7.9 197.4 0.0 0.004 39.22
2020-01-21 16:55 35.01 98.0 34.5 26.15 35.01 12.95 12.95 10.33 8.3 196.5 0.0 0.002 39.2
2020-01-21 17:00 35.01 98.3 34.57 27.63 35.01 9.57 13.85 10.27 8.3 195.1 0.0 0.001 39.16
2020-01-21 17:05 34.95 98.3 34.52 27.65 34.95 9.4 12.59 10.25 7.1 195.5 0.0 0.002 39.15
2020-01-21 17:10 34.95 99.1 34.72 27.4 34.95 9.91 11.88 9.62 7.0 194.2 0.0 0.003 39.11
2020-01-21 17:15 34.83 98.8 34.52 26.58 34.83 11.34 12.95 10.51 7.7 197.6 0.01 0.003 39.07
2020-01-21 17:20 35.01 99.1 34.78 26.89 35.01 11.16 11.52 9.46 7.3 203.4 0.0 0.0 39.09
2020-01-21 17:25 34.7 99.2 34.5 27.0 34.7 10.09 13.31 10.29 7.5 212.1 0.0 0.0 39.06
2020-01-21 17:30 34.52 99.7 34.44 26.52 34.52 10.63 10.63 8.77 8.2 217.3 0.0 0.0 39.02
2020-01-21 17:35 34.34 99.5 34.21 27.08 34.34 9.04 11.52 9.8 7.8 213.0 0.01 0.0 38.98
2020-01-21 17:40 34.03 100.0 34.03 26.9 34.03 8.68 10.63 7.94 7.5 213.7 0.0 0.0 38.97
2020-01-21 17:45 34.16 100.0 34.16 26.96 34.16 8.86 10.98 8.99 9.1 206.4 0.0 0.0 38.95
2020-01-21 17:50 34.16 100.0 34.16 26.77 34.16 9.22 11.34 9.26 6.0 204.2 0.0 0.0 38.91
2020-01-21 17:55 33.98 100.0 33.98 26.11 33.98 10.09 11.88 10.2 8.0 201.9 0.0 0.0 38.88
2020-01-21 18:00 34.03 100.0 34.03 28.11 34.03 6.71 11.52 8.9 5.7 196.1 0.0 0.0 38.84
2020-01-21 18:05 33.91 100.0 33.91 26.65 33.91 8.86 10.8 9.22 8.6 200.9 0.0 0.0 38.8
2020-01-21 18:10 34.11 100.0 34.11 25.23 34.11 12.42 12.42 9.04 7.2 202.2 0.0 0.0 38.8
2020-01-21 18:15 33.98 100.0 33.98 26.19 33.98 9.91 12.77 10.85 6.0 194.7 0.01 0.0 38.75
2020-01-21 18:20 33.85 100.0 33.85 26.21 33.85 9.57 12.42 9.48 9.5 199.9 0.0 0.0 38.73
2020-01-21 18:25 33.62 100.0 33.62 27.03 33.62 7.61 10.98 9.22 7.5 196.9 0.0 0.0 38.7
2020-01-21 18:30 33.62 100.0 33.62 26.61 33.62 8.3 11.7 9.15 8.5 197.3 0.0 0.0 38.66
2020-01-21 18:35 33.73 100.0 33.73 26.53 33.73 8.68 12.59 10.04 5.5 192.8 0.0 0.0 38.64
2020-01-21 18:40 33.42 100.0 33.42 25.5 33.42 9.91 12.42 10.02 6.1 189.7 0.0 0.0 38.61
2020-01-21 18:45 33.49 100.0 33.49 25.85 33.49 9.4 12.59 10.47 7.3 194.9 0.0 0.0 38.57
2020-01-21 18:50 33.49 100.0 33.49 25.41 33.49 10.27 12.42 9.87 6.8 189.4 0.0 0.0 38.53
2020-01-21 18:55 33.49 100.0 33.49 25.95 33.49 9.22 11.52 9.28 6.9 189.4 0.0 0.0 38.53
2020-01-21 19:00 33.55 100.0 33.55 26.52 33.55 8.3 10.45 8.17 6.8 194.3 0.0 0.0 38.5
2020-01-21 19:05 33.73 100.0 33.73 26.14 33.73 9.4 9.4 7.83 8.5 193.4 0.0 0.0 38.46
2020-01-21 19:10 33.73 100.0 33.73 27.05 33.73 7.78 10.27 8.23 9.1 190.8 0.01 0.0 38.43
2020-01-21 19:15 33.8 100.0 33.8 26.52 33.8 8.86 10.98 9.31 8.6 196.7 0.0 0.0 38.39
2020-01-21 19:20 33.93 100.0 33.93 26.98 33.93 8.3 11.34 9.08 6.4 194.0 0.0 0.0 38.37
2020-01-21 19:25 34.03 100.0 34.03 26.61 34.03 9.22 11.16 9.6 8.2 187.0 0.0 0.0 38.35
2020-01-21 19:30 33.85 100.0 33.85 25.95 33.85 10.09 10.63 9.31 7.9 190.6 0.0 0.0 38.32
2020-01-21 19:35 34.03 100.0 34.03 26.61 34.03 9.22 11.88 10.09 7.3 192.7 0.0 0.0 38.28
2020-01-21 19:40 33.98 100.0 33.98 26.02 33.98 10.27 11.16 9.57 7.3 188.6 0.0 0.0 38.25
2020-01-21 19:45 34.23 100.0 34.23 28.11 34.23 7.07 11.7 8.68 6.3 194.5 0.0 0.0 38.26
2020-01-21 19:50 34.23 100.0 34.23 27.55 34.23 7.96 11.88 9.98 7.7 195.4 0.0 0.0 38.23
2020-01-21 19:55 34.59 100.0 34.59 27.04 34.59 9.73 12.59 9.8 7.0 198.2 0.0 0.0 38.19
2020-01-21 20:00 34.47 100.0 34.47 28.28 34.47 7.25 12.24 9.28 6.8 203.5 0.0 0.0 38.19
2020-01-21 20:05 34.72 100.0 34.72 27.46 34.72 9.22 9.91 8.28 8.7 202.1 0.0 0.0 38.16
2020-01-21 20:10 34.77 100.0 34.77 27.17 34.77 9.91 11.52 8.84 8.2 205.7 0.0 0.0 38.16
2020-01-21 20:15 34.83 100.0 34.83 28.28 34.83 7.96 12.95 9.62 8.2 204.3 0.0 0.0 38.12
2020-01-21 20:20 34.95 100.0 34.95 28.54 34.95 7.78 11.16 8.3 9.6 208.2 0.0 0.0 38.12
2020-01-21 20:25 35.02 100.0 35.02 27.93 35.02 9.04 10.63 7.94 7.1 207.9 0.0 0.0 38.08
2020-01-21 20:30 35.2 100.0 35.2 27.62 35.2 10.09 11.34 8.14 8.8 209.2 0.0 0.0 38.08
2020-01-21 20:35 34.83 100.0 34.83 28.08 34.83 8.3 10.8 8.81 7.5 207.2 0.0 0.0 38.05
2020-01-21 20:40 35.02 100.0 35.02 27.07 35.02 10.8 12.24 10.0 5.9 202.7 0.0 0.0 38.05
2020-01-21 20:45 35.02 100.0 35.02 27.32 35.02 10.27 11.52 9.82 5.6 201.6 0.0 0.0 38.03
2020-01-21 20:50 35.01 100.0 35.01 26.66 35.01 11.7 12.06 10.33 8.0 203.3 0.0 0.0 38.01
2020-01-21 20:55 35.08 100.0 35.08 26.31 35.08 12.77 14.03 10.42 8.8 205.8 0.0 0.0 38.01
2020-01-21 21:00 35.13 100.0 35.13 27.2 35.13 10.8 14.74 11.21 8.3 199.5 0.0 0.0 37.98
2020-01-21 21:05 35.08 100.0 35.08 27.81 35.08 9.4 12.42 10.33 8.0 205.1 0.0 0.0 37.98
2020-01-21 21:10 35.31 100.0 35.31 28.28 35.31 9.04 12.42 10.13 7.8 208.8 0.0 0.0 37.98
2020-01-21 21:15 35.44 100.0 35.44 27.83 35.44 10.27 13.13 10.18 9.8 208.6 0.0 0.0 37.98
2020-01-21 21:20 35.31 100.0 35.31 27.12 35.31 11.52 13.67 10.74 10.3 202.2 0.0 0.0 37.96
2020-01-21 21:25 35.44 100.0 35.44 25.87 35.44 15.28 15.28 11.14 9.4 204.0 0.0 0.0 37.96
2020-01-21 21:30 35.31 100.0 35.31 26.68 35.31 12.59 15.1 12.3 8.1 203.3 0.0 0.0 37.94
2020-01-21 21:35 35.51 100.0 35.51 26.86 35.51 12.77 15.99 13.02 6.5 210.1 0.0 0.0 37.94
2020-01-21 21:40 35.51 100.0 35.51 25.72 35.51 15.99 17.07 14.45 8.6 211.7 0.0 0.0 37.92
2020-01-21 21:45 35.38 100.0 35.38 27.28 35.38 11.34 15.82 13.0 7.0 209.4 0.0 0.0 37.92
2020-01-21 21:50 35.38 100.0 35.38 27.21 35.38 11.52 16.71 12.91 8.6 208.5 0.0 0.0 37.92
2020-01-21 21:55 35.44 100.0 35.44 27.2 35.44 11.7 15.82 12.82 8.2 205.3 0.0 0.0 37.92
2020-01-21 22:00 35.49 100.0 35.49 26.9 35.49 12.59 17.78 13.94 7.5 205.8 0.0 0.0 37.92
2020-01-21 22:05 35.67 100.0 35.67 27.64 35.67 11.34 15.82 12.86 8.1 203.4 0.0 0.0 37.92
2020-01-21 22:10 35.44 100.0 35.44 25.99 35.44 14.92 16.35 12.8 6.8 206.9 0.0 0.0 37.9
2020-01-21 22:15 35.74 100.0 35.74 27.81 35.74 11.16 16.71 13.4 7.2 208.1 0.0 0.0 37.89
2020-01-21 22:20 35.8 99.9 35.77 27.02 35.8 13.31 15.82 13.0 5.6 206.5 0.0 0.0 37.89
2020-01-21 22:25 35.87 99.4 35.72 26.25 35.87 15.82 16.35 14.05 7.6 208.0 0.0 0.0 37.89
2020-01-21 22:30 35.67 99.3 35.49 26.41 35.67 14.56 17.61 13.33 9.9 206.7 0.0 0.0 37.89
2020-01-21 22:35 35.74 99.2 35.54 26.63 35.74 14.2 16.53 13.58 10.4 205.1 0.0 0.0 37.89
2020-01-21 22:40 35.67 99.1 35.44 26.47 35.67 14.38 16.17 13.27 7.8 200.7 0.0 0.0 37.89
2020-01-21 22:45 35.74 99.3 35.57 26.03 35.74 15.99 17.43 14.27 8.1 206.6 0.0 0.0 37.87
2020-01-21 22:50 35.92 99.4 35.77 26.37 35.92 15.64 18.14 13.98 7.8 211.1 0.0 0.0 37.85
2020-01-21 22:55 35.74 99.3 35.57 26.38 35.74 14.92 19.93 14.74 7.1 212.1 0.0 0.0 37.85
2020-01-21 23:00 36.05 99.1 35.82 25.83 36.05 17.96 18.5 14.99 7.9 210.3 0.0 0.0 37.85
2020-01-21 23:05 35.98 99.1 35.75 26.16 35.98 16.53 20.29 15.86 8.4 206.2 0.0 0.0 37.85
2020-01-21 23:10 35.8 99.3 35.62 26.89 35.8 13.67 17.96 13.8 9.6 208.8 0.0 0.0 37.85
2020-01-21 23:15 35.87 99.3 35.69 26.85 35.87 14.03 17.61 14.56 8.9 206.6 0.0 0.0 37.85
2020-01-21 23:20 35.74 99.5 35.62 27.02 35.74 13.13 18.32 14.14 9.9 211.1 0.0 0.0 37.85
2020-01-21 23:25 35.87 99.5 35.74 26.91 35.87 13.85 17.25 14.12 7.7 209.4 0.0 0.0 37.85
2020-01-21 23:30 35.56 99.5 35.44 26.79 35.56 13.13 14.2 11.86 9.2 219.8 0.0 0.0 37.83
2020-01-21 23:35 35.44 99.8 35.39 27.43 35.44 11.16 13.13 10.6 7.1 216.7 0.0 0.0 37.81
2020-01-21 23:40 35.26 99.8 35.21 29.12 35.26 7.43 13.67 10.02 7.8 217.7 0.0 0.0 37.81
2020-01-21 23:45 35.08 100.0 35.08 28.18 35.08 8.68 10.63 7.94 10.5 223.2 0.0 0.0 37.81
2020-01-21 23:50 35.01 100.0 35.01 28.09 35.01 8.68 10.8 8.5 9.1 220.2 0.0 0.0 37.81
2020-01-21 23:55 34.95 99.9 34.93 27.4 34.95 9.91 13.85 8.81 10.0 217.6 0.0 0.0 37.81
2020-01-22 00:00 34.88 99.7 34.8 26.73 34.88 11.16 11.88 9.71 8.6 219.5 0.0 0.0 37.8
2020-01-22 00:05 34.65 99.5 34.52 28.97 34.65 6.53 10.8 7.94 10.5 223.4 0.0 0.0 37.8
2020-01-22 00:10 34.47 99.4 34.31 27.24 34.47 9.04 11.7 9.28 7.8 222.0 0.0 0.0 37.78
2020-01-22 00:15 33.73 99.7 33.65 25.79 33.73 10.09 13.49 10.2 10.2 226.2 0.0 0.0 37.78
2020-01-22 00:20 33.37 100.0 33.37 23.59 33.37 14.2 14.2 12.3 7.1 227.5 0.0 0.0 37.78
2020-01-22 00:25 33.73 99.9 33.7 25.05 33.73 11.7 16.71 13.94 6.6 225.7 0.0 0.0 37.76
2020-01-22 00:30 33.49 99.9 33.47 24.6 33.49 12.06 13.85 11.34 7.2 230.1 0.0 0.0 37.74
2020-01-22 00:35 33.3 99.7 33.22 25.61 33.3 9.4 13.49 11.77 8.8 230.4 0.0 0.0 37.71
2020-01-22 00:40 33.24 99.5 33.12 25.83 33.24 8.86 14.03 10.83 7.8 230.2 0.0 0.0 37.71
2020-01-22 00:45 32.81 99.7 32.74 26.04 32.81 7.61 12.95 9.82 10.0 231.4 0.0 0.0 37.67
2020-01-22 00:50 32.58 99.8 32.53 25.65 32.58 7.78 10.8 8.79 10.6 220.8 0.0 0.0 37.67
2020-01-22 00:55 32.5 99.5 32.38 23.92 32.5 10.8 12.77 9.98 9.2 215.9 0.0 0.0 37.63
2020-01-22 01:00 32.32 99.5 32.2 23.96 32.32 10.27 14.2 10.45 7.5 216.3 0.0 0.0 37.6
2020-01-22 01:05 32.27 99.8 32.22 22.91 32.27 12.42 13.31 11.03 10.0 220.6 0.0 0.0 37.56
2020-01-22 01:10 32.09 99.8 32.04 22.76 32.09 12.24 14.74 11.52 9.4 216.4 0.0 0.0 37.53
2020-01-22 01:15 32.22 99.5 32.09 24.18 32.22 9.57 11.34 8.57 10.2 216.7 0.0 0.0 37.51
2020-01-22 01:20 31.84 99.8 31.79 24.11 31.84 8.86 10.27 8.37 8.3 210.4 0.0 0.0 37.47
2020-01-22 01:25 31.84 100.0 31.84 22.76 31.84 11.52 14.74 11.25 9.3 221.1 0.0 0.0 37.44
2020-01-22 01:30 32.02 99.5 31.89 23.07 32.02 11.34 14.56 11.92 6.5 221.4 0.0 0.0 37.4
2020-01-22 01:35 32.22 99.3 32.04 21.79 32.22 15.1 15.1 12.1 6.3 231.0 0.0 0.0 37.36
2020-01-22 01:40 32.22 98.9 31.94 23.48 32.22 10.98 16.17 12.5 8.4 229.7 0.0 0.0 37.33
2020-01-22 01:45 32.45 99.3 32.28 22.99 32.45 12.77 14.56 12.26 7.9 230.9 0.0 0.0 37.29
2020-01-22 01:50 32.58 98.7 32.25 23.68 32.58 11.52 17.07 13.33 7.3 229.3 0.0 0.0 37.22
2020-01-22 01:55 32.4 98.9 32.12 24.23 32.4 9.91 14.2 10.83 8.6 228.8 0.0 0.0 37.18
2020-01-22 02:00 32.4 99.5 32.27 24.05 32.4 10.27 14.03 11.77 10.5 233.4 0.0 0.0 37.15
2020-01-22 02:05 32.45 99.5 32.33 23.37 32.45 11.88 15.28 12.71 9.0 237.5 0.0 0.0 37.11
2020-01-22 02:10 32.4 99.7 32.32 25.01 32.4 8.48 12.95 10.6 7.9 238.8 0.0 0.0 37.09
2020-01-22 02:15 32.27 99.9 32.25 25.28 32.27 7.78 11.7 9.13 9.8 244.6 0.0 0.0 37.02
2020-01-22 02:20 32.14 100.0 32.14 26.24 32.14 6.17 9.57 7.87 6.4 252.9 0.0 0.0 37.0
2020-01-22 02:25 32.02 100.0 32.02 25.32 32.02 7.25 9.04 7.61 7.1 251.7 0.0 0.0 36.95
2020-01-22 02:30 32.22 100.0 32.22 24.37 32.22 9.22 9.57 7.74 10.2 245.9 0.0 0.0 36.93
2020-01-22 02:35 32.02 100.0 32.02 23.49 32.02 10.45 11.7 9.44 7.4 240.4 0.0 0.0 36.88
2020-01-22 02:40 31.84 100.0 31.84 23.18 31.84 10.63 12.95 11.36 6.7 238.2 0.0 0.0 36.88
2020-01-22 02:45 31.91 100.0 31.91 22.93 31.91 11.34 14.2 11.5 6.5 237.7 0.0 0.0 36.84
2020-01-22 02:50 31.66 100.0 31.66 22.62 31.66 11.34 12.95 11.32 7.9 237.8 0.0 0.0 36.81
2020-01-22 02:55 31.78 100.0 31.78 23.84 31.78 9.22 12.95 10.38 8.5 240.8 0.0 0.0 36.77
2020-01-22 03:00 31.53 100.0 31.53 24.17 31.53 8.12 11.34 9.35 7.8 250.1 0.0 0.0 36.77
2020-01-22 03:05 31.6 100.0 31.6 23.82 31.6 8.86 11.88 10.0 9.8 248.4 0.0 0.0 36.73
2020-01-22 03:10 32.02 100.0 32.02 23.4 32.02 10.63 12.42 9.64 7.5 259.8 0.0 0.0 36.72
2020-01-22 03:15 31.84 100.0 31.84 22.76 31.84 11.52 12.06 10.38 8.1 250.6 0.0 0.0 36.72
2020-01-22 03:20 31.84 100.0 31.84 23.45 31.84 10.09 11.88 9.73 5.7 252.7 0.0 0.0 36.68
2020-01-22 03:25 31.71 100.0 31.71 24.39 31.71 8.12 11.34 9.53 7.1 254.1 0.0 0.0 36.68
2020-01-22 03:30 31.84 100.0 31.84 23.09 31.84 10.8 13.31 10.33 7.1 257.0 0.0 0.0 36.64
2020-01-22 03:35 31.78 100.0 31.78 22.3 31.78 12.42 14.74 12.28 7.7 249.0 0.0 0.0 36.64
2020-01-22 03:40 32.14 100.0 32.14 22.53 32.14 12.95 15.99 12.33 7.1 248.9 0.0 0.0 36.61
2020-01-22 03:45 32.32 100.0 32.32 24.41 32.32 9.4 14.56 11.32 10.3 258.4 0.0 0.0 36.61
2020-01-22 03:50 32.5 99.9 32.48 24.46 32.5 9.73 12.77 10.38 8.3 266.3 0.0 0.0 36.57
2020-01-22 03:55 32.63 100.0 32.63 23.75 32.63 11.52 13.85 11.16 7.9 263.9 0.0 0.0 36.57
2020-01-22 04:00 32.63 100.0 32.63 22.59 32.63 14.38 16.17 12.93 6.5 252.2 0.0 0.0 36.54
2020-01-22 04:05 32.58 100.0 32.58 22.58 32.58 14.2 17.43 14.23 10.1 248.1 0.0 0.0 36.54
2020-01-22 04:10 32.76 100.0 32.76 20.96 32.76 19.93 20.11 16.06 8.0 250.2 0.0 0.0 36.5
2020-01-22 04:15 33.06 100.0 33.06 21.36 33.06 19.93 21.72 17.27 8.8 254.2 0.0 0.0 36.5
2020-01-22 04:20 32.76 100.0 32.76 22.12 32.76 16.17 20.29 15.46 7.9 255.6 0.0 0.0 36.46
2020-01-22 04:25 32.63 100.0 32.63 21.72 32.63 16.89 19.22 15.55 8.9 251.9 0.0 0.0 36.46
2020-01-22 04:30 32.83 100.0 32.83 22.45 32.83 15.46 16.89 15.12 9.9 252.7 0.0 0.0 36.45
2020-01-22 04:35 32.63 100.0 32.63 22.39 32.63 14.92 19.39 16.46 7.7 251.0 0.0 0.0 36.43
2020-01-22 04:40 32.76 100.0 32.76 22.24 32.76 15.82 18.5 15.82 8.0 247.1 0.0 0.0 36.43
2020-01-22 04:45 32.5 100.0 32.5 22.36 32.5 14.56 16.89 14.12 11.0 245.5 0.0 0.0 36.39
2020-01-22 04:50 32.63 100.0 32.63 21.95 32.63 16.17 18.86 15.88 8.0 253.3 0.0 0.0 36.39
2020-01-22 04:55 32.58 100.0 32.58 20.88 32.58 19.39 19.39 15.93 8.6 253.2 0.0 0.0 36.36
2020-01-22 05:00 32.5 100.0 32.5 22.91 32.5 13.13 18.5 15.37 8.8 248.3 0.0 0.0 36.36
2020-01-22 05:05 32.63 100.0 32.63 23.22 32.63 12.77 16.53 13.82 7.1 250.2 0.0 0.0 36.34
2020-01-22 05:10 32.58 100.0 32.58 22.86 32.58 13.49 18.14 13.18 5.7 251.3 0.0 0.0 36.32
2020-01-22 05:15 32.63 100.0 32.63 23.44 32.63 12.24 17.07 13.24 9.3 253.1 0.0 0.0 36.32
2020-01-22 05:20 32.63 100.0 32.63 22.86 32.63 13.67 15.99 13.11 6.2 254.5 0.0 0.0 36.32
2020-01-22 05:25 33.01 100.0 33.01 23.41 33.01 13.49 16.71 12.44 7.8 251.4 0.0 0.0 36.3
2020-01-22 05:30 33.24 100.0 33.24 23.78 33.24 13.31 15.46 12.68 8.9 254.4 0.0 0.0 36.3
2020-01-22 05:35 33.67 100.0 33.67 24.19 33.67 13.67 13.67 11.99 6.7 255.5 0.0 0.0 36.27
2020-01-22 05:40 33.8 100.0 33.8 25.62 33.8 10.63 15.28 12.71 9.2 256.5 0.0 0.0 36.27
2020-01-22 05:45 33.98 100.0 33.98 25.07 33.98 12.42 16.53 12.62 7.7 253.1 0.0 0.0 36.25
2020-01-22 05:50 34.11 100.0 34.11 26.01 34.11 10.63 16.71 12.12 8.7 254.0 0.0 0.0 36.23
2020-01-22 05:55 34.23 100.0 34.23 25.46 34.23 12.24 15.28 12.19 11.5 254.8 0.0 0.0 36.23
2020-01-22 06:00 34.11 100.0 34.11 24.87 34.11 13.31 15.28 13.09 11.6 258.4 0.0 0.0 36.23
2020-01-22 06:05 34.23 99.9 34.21 25.92 34.23 11.16 17.07 13.82 8.0 256.5 0.0 0.0 36.19
2020-01-22 06:10 34.16 99.6 34.06 26.07 34.16 10.63 16.35 13.11 8.7 257.2 0.0 0.0 36.19
2020-01-22 06:15 33.93 99.9 33.9 24.11 33.93 14.74 17.25 13.38 7.1 254.0 0.0 0.0 36.19
2020-01-22 06:20 33.98 99.7 33.9 25.22 33.98 12.06 15.46 12.12 9.3 254.4 0.0 0.0 36.18
2020-01-22 06:25 33.49 99.9 33.47 23.82 33.49 14.03 14.2 12.15 5.8 256.7 0.0 0.0 36.16
2020-01-22 06:30 33.62 100.0 33.62 25.23 33.62 10.98 15.64 12.35 8.4 258.2 0.0 0.0 36.16
2020-01-22 06:35 33.67 99.7 33.6 24.83 33.67 12.06 15.64 13.06 7.8 259.2 0.0 0.0 36.12
2020-01-22 06:40 33.8 99.8 33.75 25.54 33.8 10.8 14.38 12.08 9.5 259.6 0.0 0.0 36.12
2020-01-22 06:45 33.49 99.8 33.44 24.53 33.49 12.24 14.2 11.9 9.1 259.2 0.0 0.001 36.12
2020-01-22 06:50 33.49 99.8 33.44 25.41 33.49 10.27 14.74 12.01 8.5 263.9 0.0 0.002 36.1
2020-01-22 06:55 33.55 99.9 33.52 24.83 33.55 11.7 13.85 11.05 7.7 261.7 0.0 0.003 36.09
2020-01-22 07:00 33.37 100.0 33.37 24.45 33.37 12.06 13.13 10.78 8.9 265.7 0.0 0.01 36.09
2020-01-22 07:05 33.24 100.0 33.24 24.21 33.24 12.24 13.13 11.14 7.8 259.5 0.0 0.014 36.07
2020-01-22 07:10 33.55 100.0 33.55 25.48 33.55 10.27 12.95 10.85 9.1 263.3 0.0 0.016 36.05
2020-01-22 07:15 33.93 99.4 33.78 26.39 33.93 9.4 12.24 10.8 6.6 264.4 0.0 0.026 36.05
2020-01-22 07:20 34.59 98.7 34.26 26.69 34.59 10.45 14.2 11.52 7.7 263.6 0.0 0.048 36.03
2020-01-22 07:25 34.34 98.3 33.91 26.99 34.34 9.22 13.13 10.72 6.8 265.3 0.0 0.07 36.03
2020-01-22 07:30 34.41 98.2 33.96 26.64 34.41 10.09 12.42 10.65 7.7 265.1 0.0 0.086 36.01
2020-01-22 07:35 34.65 97.8 34.09 26.68 34.65 10.63 13.67 10.85 8.0 265.2 0.0 0.103 36.0
2020-01-22 07:40 34.84 97.6 34.23 26.16 34.84 12.42 13.31 10.72 7.9 262.0 0.0 0.036 36.0
2020-01-22 07:45 34.65 97.8 34.09 27.02 34.65 9.91 13.31 11.07 7.3 265.1 0.0 0.039 35.98
2020-01-22 07:50 34.84 97.7 34.26 26.76 34.84 10.98 13.67 11.16 7.6 263.1 0.0 0.047 35.96
2020-01-22 07:55 35.02 97.4 34.36 26.31 35.02 12.59 13.85 11.57 6.6 266.7 0.0 0.092 35.96
2020-01-22 08:00 35.76 96.5 34.86 26.78 35.76 13.85 16.35 12.8 8.0 264.2 0.0 0.157 35.94
2020-01-22 08:05 36.61 96.9 35.81 28.52 36.61 12.06 14.74 12.46 6.7 268.5 0.0 0.254 35.94
2020-01-22 08:10 37.58 95.4 36.38 29.89 37.58 11.7 15.99 13.13 8.2 271.9 0.0 0.217 35.94
2020-01-22 08:15 38.44 95.5 37.27 31.19 38.44 11.16 14.92 12.42 8.4 270.2 0.0 0.282 35.94
2020-01-22 08:20 39.47 93.0 37.61 31.5 39.47 13.85 15.64 13.11 8.4 269.5 0.0 0.273 35.92
2020-01-22 08:25 40.03 92.2 37.95 31.87 40.03 14.92 17.61 13.29 6.8 273.1 0.0 0.277 35.91
2020-01-22 08:30 40.64 91.8 38.44 32.99 40.64 13.85 17.07 14.52 8.0 272.5 0.0 0.289 35.91
2020-01-22 08:35 41.31 90.5 38.74 33.72 41.31 14.2 15.99 14.32 5.8 274.4 0.0 0.299 35.91
2020-01-22 08:40 41.67 90.2 39.01 34.58 41.67 12.95 20.29 14.94 6.9 275.4 0.0 0.204 35.91
2020-01-22 08:45 41.49 88.4 38.31 33.37 41.49 16.17 16.17 13.33 9.6 274.4 0.0 0.331 35.91
2020-01-22 08:50 42.82 90.9 40.34 36.47 42.82 11.7 16.17 13.53 7.2 276.1 0.0 0.37 35.94
2020-01-22 08:55 43.99 86.7 40.28 36.89 43.99 15.1 15.99 13.71 8.0 272.9 0.0 0.415 35.94
2020-01-22 09:00 44.78 85.0 40.55 37.71 44.78 15.82 17.61 14.61 7.6 274.0 0.0 0.464 35.98
2020-01-22 09:05 45.5 83.5 40.79 38.2 45.5 17.61 17.78 14.88 8.8 274.0 0.0 0.416 36.03
2020-01-22 09:10 45.81 80.8 40.24 38.47 45.81 18.14 19.93 16.64 6.4 268.9 0.0 0.477 36.09
2020-01-22 09:15 46.06 81.3 40.65 39.01 46.06 17.25 19.75 17.0 8.8 271.8 0.0 0.203 36.1
2020-01-22 09:20 44.83 81.3 39.45 37.25 44.83 17.96 19.93 16.2 6.7 275.0 0.0 0.186 36.18
2020-01-22 09:25 43.92 81.5 38.62 36.41 43.92 16.53 21.9 18.21 6.4 277.8 0.0 0.163 36.25
2020-01-22 09:30 43.79 84.3 39.36 37.27 43.79 12.95 20.11 15.08 7.5 278.3 0.0 0.163 36.32
2020-01-22 09:35 43.41 82.2 38.35 35.81 43.41 16.35 19.22 14.97 6.7 278.6 0.0 0.177 36.39
2020-01-22 09:40 44.2 83.6 39.55 37.07 44.2 15.46 17.07 14.23 7.4 280.9 0.0 0.463 36.48
2020-01-22 09:45 45.55 82.1 40.41 39.51 45.55 12.95 17.43 14.41 7.2 281.1 0.0 0.467 36.55
2020-01-22 09:50 46.35 77.54 39.71 39.77 46.35 15.64 17.78 14.07 8.2 285.4 0.0 0.448 36.66
2020-01-22 09:55 46.29 76.59 39.34 39.35 46.29 17.07 17.07 14.16 7.3 292.3 0.0 0.463 36.77
2020-01-22 10:00 47.21 75.57 39.89 40.84 47.21 15.82 18.32 14.7 6.1 288.8 0.0 0.47 36.84
2020-01-22 10:05 47.62 78.12 41.14 42.45 47.62 11.88 17.61 14.65 8.0 289.9 0.0 0.477 36.93
2020-01-22 10:10 48.31 71.06 39.36 42.43 48.31 15.1 17.25 13.56 6.0 295.4 0.0 0.485 37.04
2020-01-22 10:15 48.74 71.57 39.96 43.3 48.74 13.85 16.89 13.35 8.3 300.2 0.0 0.493 37.17
2020-01-22 10:20 49.35 64.71 37.97 43.51 49.35 16.17 16.89 14.14 8.8 299.7 0.0 0.502 37.27
2020-01-22 10:25 49.35 71.64 40.58 44.57 49.35 12.06 17.25 14.76 5.6 302.0 0.0 0.509 37.42
2020-01-22 10:30 49.59 65.42 38.47 44.42 49.59 13.67 18.14 15.52 7.3 305.3 0.0 0.516 37.56
2020-01-22 10:35 50.14 70.75 41.01 50.14 50.14 14.2 17.61 14.83 6.0 302.6 0.0 0.523 37.71
2020-01-22 10:40 50.94 59.14 37.17 50.94 50.94 14.74 17.96 14.92 10.9 314.9 0.0 0.531 37.83
2020-01-22 10:45 51.12 59.38 37.45 51.12 51.12 12.06 18.86 16.02 8.9 325.7 0.0 0.537 37.99
2020-01-22 10:50 51.24 51.54 33.99 51.24 51.24 20.11 22.97 17.31 8.3 327.0 0.0 0.543 38.14
2020-01-22 10:55 51.78 52.28 34.85 51.78 51.78 18.32 22.97 17.29 6.2 336.4 0.0 0.549 38.3
2020-01-22 11:00 51.6 56.53 36.65 51.6 51.6 16.71 21.9 18.5 7.4 327.3 0.0 0.555 38.44
2020-01-22 11:05 52.09 48.55 33.27 52.09 52.09 14.92 21.72 16.15 11.9 343.9 0.0 0.56 38.61
2020-01-22 11:10 52.09 50.08 34.05 52.09 52.09 18.5 25.28 15.93 12.1 347.6 0.0 0.565 38.75
2020-01-22 11:15 51.96 48.55 33.16 51.96 51.96 16.53 22.26 17.18 16.0 339.6 0.0 0.569 38.91
2020-01-22 11:20 51.85 46.61 32.04 51.85 51.85 19.75 20.29 15.73 19.2 348.5 0.0 0.574 39.06
2020-01-22 11:25 52.03 47.5 32.68 52.03 52.03 14.38 21.18 14.56 16.0 355.1 0.0 0.578 39.2
2020-01-22 11:30 51.96 48.51 33.14 51.96 51.96 19.57 21.01 16.13 18.1 341.2 0.0 0.582 39.34
2020-01-22 11:35 52.27 49.8 34.08 52.27 52.27 13.67 18.86 14.94 9.6 343.1 0.0 0.588 39.49
2020-01-22 11:40 52.21 48.68 33.46 52.21 52.21 10.8 14.92 11.65 18.9 359.8 0.0 0.599 39.61
2020-01-22 11:45 52.52 49.23 34.02 52.52 52.52 13.31 15.99 10.94 24.1 3.6 0.0 0.624 39.76
2020-01-22 11:50 52.34 49.33 33.91 52.34 52.34 16.53 23.69 15.28 20.4 348.2 0.0 0.624 39.88
2020-01-22 11:55 52.34 49.23 33.85 52.34 52.34 12.95 19.04 12.89 24.5 357.5 0.0 0.662 39.99
2020-01-22 12:00 52.47 51.54 35.12 52.47 52.47 12.77 19.75 12.68 24.9 351.7 0.0 0.429 40.14
2020-01-22 12:05 52.34 48.38 33.42 52.34 52.34 13.49 17.61 12.73 18.1 355.7 0.0 0.539 40.24
2020-01-22 12:10 53.19 46.75 33.34 53.19 53.19 9.73 16.35 11.68 13.1 353.6 0.0 0.236 40.39
2020-01-22 12:15 52.7 48.34 33.73 52.7 52.7 9.91 13.31 10.54 31.4 6.9 0.0 0.447 40.5
2020-01-22 12:20 52.52 47.02 32.87 52.52 52.52 8.86 13.85 10.22 21.9 13.8 0.0 0.591 40.62
2020-01-22 12:25 53.13 49.67 34.81 53.13 53.13 7.61 14.74 8.48 29.2 4.3 0.0 0.633 40.75
2020-01-22 12:30 53.13 47.36 33.61 53.13 53.13 7.07 16.89 9.73 23.0 15.6 0.0 0.437 40.86
2020-01-22 12:35 53.31 51.64 35.95 53.31 53.31 12.59 13.31 9.4 22.7 3.1 0.0 0.533 41.0
2020-01-22 12:40 54.18 45.56 33.6 54.18 54.18 16.17 16.17 11.81 24.6 355.9 0.0 0.756 41.11
2020-01-22 12:45 55.02 45.9 34.56 55.02 55.02 9.91 13.13 10.09 23.2 3.0 0.0 0.565 41.25
2020-01-22 12:50 54.18 44.95 33.26 54.18 54.18 10.98 15.82 11.65 19.2 360.0 0.0 0.385 41.36
2020-01-22 12:55 53.92 47.73 34.53 53.92 53.92 9.4 13.85 9.13 20.3 2.5 0.0 0.351 41.49
2020-01-22 13:00 53.62 48.55 34.68 53.62 53.62 9.73 13.85 9.73 23.8 2.1 0.0 0.309 41.63
2020-01-22 13:05 52.34 44.92 31.57 52.34 52.34 12.95 18.32 12.82 23.9 4.6 0.0 0.265 41.77
2020-01-22 13:10 51.96 45.87 31.75 51.96 51.96 9.4 16.35 10.51 24.5 7.8 0.0 0.221 41.9
2020-01-22 13:15 51.6 45.87 31.42 51.6 51.6 10.09 12.06 9.48 27.5 7.2 0.0 0.217 42.06
2020-01-22 13:20 51.73 46.82 32.04 51.73 51.73 8.86 10.98 8.21 20.0 13.4 0.0 0.235 42.22
2020-01-22 13:25 51.91 46.41 31.99 51.91 51.91 11.34 12.24 8.81 25.4 7.4 0.0 0.258 42.33
2020-01-22 13:30 52.27 46.38 32.3 52.27 52.27 8.12 11.88 8.48 22.7 6.3 0.0 0.223 42.46
2020-01-22 13:35 52.21 47.67 32.93 52.21 52.21 8.12 12.59 8.32 29.8 14.0 0.0 0.203 42.58
2020-01-22 13:40 52.34 45.39 31.83 52.34 52.34 12.42 14.03 9.28 27.2 8.6 0.0 0.205 42.67
2020-01-22 13:45 51.91 47.39 32.51 51.91 51.91 10.63 15.82 11.16 21.0 346.5 0.0 0.211 42.8
2020-01-22 13:50 51.73 48.65 32.99 51.73 51.73 9.22 16.35 11.03 22.8 350.2 0.0 0.236 42.87
2020-01-22 13:55 52.09 45.7 31.77 52.09 52.09 10.98 11.34 8.88 15.2 357.1 0.0 0.327 42.96
2020-01-22 14:00 52.7 46.34 32.67 52.7 52.7 8.86 13.31 9.44 21.6 351.0 0.0 0.521 43.03
2020-01-22 14:05 53.19 44.1 31.89 53.19 53.19 10.09 13.49 9.51 20.4 0.3 0.0 0.376 43.11
2020-01-22 14:10 52.77 44.98 32.0 52.77 52.77 9.04 15.28 10.72 18.2 347.7 0.0 0.267 43.18
2020-01-22 14:15 53.44 45.12 32.68 53.44 53.44 11.88 14.38 8.21 20.5 2.7 0.0 0.41 43.21
2020-01-22 14:20 53.26 44.88 32.39 53.26 53.26 10.09 16.35 10.89 25.7 356.7 0.0 0.336 43.29
2020-01-22 14:25 53.01 46.78 33.19 53.01 53.01 14.74 15.64 11.81 26.1 348.9 0.0 0.251 43.36
2020-01-22 14:30 52.52 45.22 31.9 52.52 52.52 8.48 13.49 9.4 21.2 5.5 0.0 0.52 43.43
2020-01-22 14:35 53.56 46.85 33.74 53.56 53.56 4.03 13.31 8.5 21.4 352.4 0.0 0.545 43.52
2020-01-22 14:40 53.26 45.66 32.82 53.26 53.26 9.04 14.2 10.16 14.3 353.6 0.0 0.198 43.61
2020-01-22 14:45 52.27 47.7 33.0 52.27 52.27 10.09 11.88 8.79 13.5 348.3 0.0 0.202 43.66
2020-01-22 14:50 51.85 48.72 33.15 51.85 51.85 8.48 12.06 9.46 13.9 349.0 0.0 0.175 43.74
2020-01-22 14:55 51.85 49.33 33.46 51.85 51.85 10.63 13.31 9.66 23.6 353.3 0.0 0.205 43.84
2020-01-22 15:00 52.03 48.38 33.14 52.03 52.03 7.61 12.42 9.37 20.4 359.2 0.0 0.197 43.92
2020-01-22 15:05 52.03 47.8 32.84 52.03 52.03 7.43 9.22 6.82 23.6 9.4 0.0 0.322 43.99
2020-01-22 15:10 52.52 47.46 33.1 52.52 52.52 9.73 9.73 7.18 23.1 5.3 0.0 0.241 44.06
2020-01-22 15:15 52.16 49.77 33.96 52.16 52.16 9.22 10.27 7.43 25.6 352.9 0.0 0.207 44.13
2020-01-22 15:20 51.67 50.48 33.87 51.67 51.67 10.63 12.59 9.28 13.2 350.0 0.0 0.111 44.15
2020-01-22 15:25 51.3 52.15 34.33 51.3 51.3 7.25 11.52 8.68 24.6 349.8 0.0 0.148 44.2
2020-01-22 15:30 51.48 48.82 32.85 51.48 51.48 7.96 10.63 8.32 13.7 348.3 0.0 0.144 44.26
2020-01-22 15:35 51.06 50.52 33.32 51.06 51.06 7.43 10.27 7.0 21.9 348.0 0.0 0.091 44.29
2020-01-22 15:40 50.56 49.64 32.42 50.56 50.56 5.28 9.04 6.82 19.0 353.9 0.0 0.128 44.33
2020-01-22 15:45 51.06 50.45 33.29 51.06 51.06 7.07 7.96 6.17 16.7 351.8 0.0 0.303 44.37
2020-01-22 15:50 51.85 48.01 32.78 51.85 51.85 6.89 10.63 7.25 33.0 3.4 0.0 0.288 44.38
2020-01-22 15:55 51.91 46.51 32.04 51.91 51.91 8.3 9.4 6.46 21.0 4.2 0.0 0.26 44.4
2020-01-22 16:00 52.16 46.72 32.38 52.16 52.16 6.17 8.86 6.49 15.4 18.3 0.0 0.215 44.4
2020-01-22 16:05 52.27 49.26 33.8 52.27 52.27 5.1 8.68 6.31 21.4 356.4 0.0 0.179 44.42
2020-01-22 16:10 51.91 50.52 34.1 51.91 51.91 8.68 9.22 6.89 16.1 350.2 0.0 0.156 44.44
2020-01-22 16:15 51.55 50.01 33.52 51.55 51.55 3.85 8.3 5.46 22.6 11.6 0.0 0.139 44.44
2020-01-22 16:20 50.94 49.6 32.75 50.94 50.94 5.82 8.3 5.93 16.8 18.2 0.0 0.125 44.47
2020-01-22 16:25 50.63 50.28 32.8 50.63 50.63 6.71 8.48 6.04 17.7 3.9 0.0 0.108 44.47
2020-01-22 16:30 50.32 49.36 32.06 50.32 50.32 3.67 6.89 5.1 22.7 4.8 0.0 0.09 44.49
2020-01-22 16:35 50.2 49.23 31.88 50.2 50.2 5.1 7.25 4.52 18.4 2.1 0.0 0.073 44.51
2020-01-22 16:40 49.89 50.65 32.31 49.89 49.89 2.95 5.82 3.87 17.1 351.3 0.0 0.058 44.51
2020-01-22 16:45 49.59 51.94 32.65 49.59 49.59 2.95 4.38 3.38 15.3 351.5 0.0 0.044 44.51
2020-01-22 16:50 49.15 52.79 32.65 49.15 49.15 2.42 4.56 3.22 15.2 350.5 0.0 0.032 44.51

Data is courtesy of the NM Climate Center. DO NOT USE IN LEGAL PROCEEDINGS.